createdAt,value
2022-08-26T00:01:45.245Z,5.60
2022-08-26T00:04:12.797Z,7.20
2022-08-26T00:06:42.731Z,7.30
2022-08-26T00:09:16.177Z,6.57
2022-08-26T00:11:45.466Z,6.05
2022-08-26T00:14:14.085Z,6.63
2022-08-26T00:16:47.479Z,7.12
2022-08-26T00:19:17.255Z,6.10
2022-08-26T00:21:44.452Z,6.15
2022-08-26T00:24:11.401Z,7.07
2022-08-26T00:26:39.468Z,6.10
2022-08-26T00:29:08.240Z,6.90
2022-08-26T00:31:36.852Z,7.32
2022-08-26T00:34:04.503Z,7.62
2022-08-26T00:36:32.365Z,6.53
2022-08-26T00:38:59.566Z,7.40
2022-08-26T00:41:28.933Z,6.78
2022-08-26T00:43:55.840Z,6.37
2022-08-26T00:46:29.290Z,6.32
2022-08-26T00:49:12.333Z,5.87
2022-08-26T00:51:52.587Z,6.25
2022-08-26T00:54:22.996Z,6.62
2022-08-26T00:56:59.964Z,6.72
2022-08-26T00:59:27.652Z,6.72
2022-08-26T01:01:54.513Z,6.70
2022-08-26T01:04:23.478Z,7.12
2022-08-26T01:06:54.657Z,6.57
2022-08-26T01:09:23.373Z,6.18
2022-08-26T01:11:53.199Z,5.60
2022-08-26T01:14:22.384Z,6.03
2022-08-26T01:16:50.182Z,6.53
2022-08-26T01:19:28.508Z,6.53
2022-08-26T01:21:57.951Z,6.68
2022-08-26T01:24:27.798Z,6.68
2022-08-26T01:27:01.864Z,6.80
2022-08-26T01:29:30.114Z,5.62
2022-08-26T01:31:57.866Z,5.47
2022-08-26T01:34:36.592Z,4.93
2022-08-26T01:37:15.626Z,5.90
2022-08-26T01:39:44.975Z,6.25
2022-08-26T01:42:14.975Z,5.55
2022-08-26T01:44:54.246Z,7.60
2022-08-26T01:47:24.452Z,7.53
2022-08-26T01:49:55.040Z,7.00
2022-08-26T01:52:27.645Z,6.25
2022-08-26T01:54:57.283Z,8.30
2022-08-26T01:57:25.015Z,6.97
2022-08-26T01:59:55.552Z,6.65
2022-08-26T02:02:23.904Z,6.18
2022-08-26T02:04:57.379Z,5.68
2022-08-26T02:07:26.662Z,6.37
2022-08-26T02:09:54.487Z,6.82
2022-08-26T02:12:21.831Z,6.45
2022-08-26T02:14:53.843Z,7.37
2022-08-26T02:17:24.802Z,6.55
2022-08-26T02:19:52.219Z,6.65
2022-08-26T02:22:22.532Z,6.43
2022-08-26T02:24:57.278Z,7.85
2022-08-26T02:27:32.169Z,7.18
2022-08-26T02:30:07.160Z,7.15
2022-08-26T02:32:34.113Z,7.37
2022-08-26T02:35:02.066Z,7.32
2022-08-26T02:37:31.458Z,7.78
2022-08-26T02:39:58.645Z,7.28
2022-08-26T02:42:25.415Z,7.57
2022-08-26T02:44:52.397Z,6.07
2022-08-26T02:47:19.217Z,7.53
2022-08-26T02:49:47.231Z,7.70
2022-08-26T02:52:14.566Z,8.40
2022-08-26T02:54:41.362Z,7.68
2022-08-26T02:57:09.287Z,9.07
2022-08-26T02:59:36.308Z,8.02
2022-08-26T03:02:03.543Z,7.53
2022-08-26T03:04:33.301Z,6.78
2022-08-26T03:07:00.304Z,7.28
2022-08-26T03:09:27.454Z,8.75
2022-08-26T03:11:55.666Z,7.45
2022-08-26T03:14:24.098Z,7.40
2022-08-26T03:16:54.115Z,8.82
2022-08-26T03:19:23.379Z,9.05
2022-08-26T03:21:50.952Z,9.23
2022-08-26T03:24:19.581Z,8.55
2022-08-26T03:26:52.131Z,8.65
2022-08-26T03:29:39.056Z,9.13
2022-08-26T03:32:06.367Z,9.07
2022-08-26T03:34:33.281Z,9.60
2022-08-26T03:37:00.322Z,9.48
2022-08-26T03:39:27.440Z,9.43
2022-08-26T03:41:59.022Z,9.20
2022-08-26T03:44:26.857Z,9.48
2022-08-26T03:46:55.000Z,7.65
2022-08-26T03:49:22.721Z,9.13
2022-08-26T03:51:50.155Z,9.88
2022-08-26T03:54:17.724Z,10.45
2022-08-26T03:56:44.458Z,8.85
2022-08-26T03:59:13.473Z,8.88
2022-08-26T04:01:40.278Z,10.90
2022-08-26T04:04:07.122Z,9.18
2022-08-26T04:06:37.260Z,9.10
2022-08-26T04:09:07.270Z,9.82
2022-08-26T04:11:37.744Z,10.95
2022-08-26T04:14:08.901Z,9.93
2022-08-26T04:16:35.900Z,10.45
2022-08-26T04:19:03.130Z,10.77
2022-08-26T04:21:30.001Z,10.32
2022-08-26T04:23:58.297Z,11.88
2022-08-26T04:26:25.676Z,11.93
2022-08-26T04:28:55.084Z,10.38
2022-08-26T04:31:22.657Z,11.70
2022-08-26T04:33:50.986Z,11.25
2022-08-26T04:36:20.261Z,12.00
2022-08-26T04:38:47.661Z,10.38
2022-08-26T04:41:14.895Z,11.05
2022-08-26T04:43:43.210Z,10.15
2022-08-26T04:46:12.915Z,9.35
2022-08-26T04:48:41.361Z,10.27
2022-08-26T04:51:09.859Z,10.52
2022-08-26T04:53:37.482Z,9.57
2022-08-26T04:56:05.368Z,9.00
2022-08-26T04:58:32.841Z,9.90
2022-08-26T05:00:59.862Z,9.20
2022-08-26T05:03:30.501Z,9.27
2022-08-26T05:05:58.739Z,7.78
2022-08-26T05:08:26.175Z,8.18
2022-08-26T05:10:56.379Z,8.18
2022-08-26T05:13:26.371Z,7.70
2022-08-26T05:15:54.463Z,8.60
2022-08-26T05:18:24.356Z,8.68
2022-08-26T05:20:54.874Z,8.47
2022-08-26T05:23:23.976Z,7.53
2022-08-26T05:25:57.036Z,7.00
2022-08-26T05:28:27.144Z,8.65
2022-08-26T05:30:54.583Z,7.28
2022-08-26T05:33:22.172Z,7.93
2022-08-26T05:35:49.612Z,7.90
2022-08-26T05:38:18.810Z,6.95
2022-08-26T05:40:49.313Z,6.28
2022-08-26T05:43:20.741Z,7.03
2022-08-26T05:45:50.254Z,6.78
2022-08-26T05:48:22.795Z,6.28
2022-08-26T05:50:53.070Z,6.82
2022-08-26T05:53:21.827Z,6.40
2022-08-26T05:55:52.468Z,7.07
2022-08-26T05:58:21.916Z,5.70
2022-08-26T06:01:01.448Z,6.25
2022-08-26T06:03:31.784Z,6.00
2022-08-26T06:05:58.858Z,6.85
2022-08-26T06:08:25.643Z,7.45
2022-08-26T06:11:00.083Z,6.95
2022-08-26T06:13:30.219Z,6.80
2022-08-26T06:15:59.553Z,6.28
2022-08-26T06:18:32.912Z,6.68
2022-08-26T06:21:18.536Z,6.70
2022-08-26T06:24:05.743Z,6.20
2022-08-26T06:26:34.196Z,12.45
2022-08-26T06:29:05.391Z,11.48
2022-08-26T06:34:01.299Z,5.97
2022-08-26T06:36:30.718Z,5.68
2022-08-26T06:39:01.673Z,5.97
2022-08-26T06:41:28.775Z,5.45
2022-08-26T06:43:56.851Z,6.00
2022-08-26T06:46:24.151Z,6.03
2022-08-26T06:48:54.323Z,5.80
2022-08-26T06:51:24.131Z,6.23
2022-08-26T06:53:53.414Z,5.60
2022-08-26T06:56:23.568Z,5.72
2022-08-26T06:58:51.918Z,6.20
2022-08-26T07:01:30.488Z,5.28
2022-08-26T07:04:00.795Z,5.28
2022-08-26T07:09:04.963Z,5.22
2022-08-26T07:11:33.939Z,6.07
2022-08-26T07:14:01.223Z,5.57
2022-08-26T07:16:31.111Z,5.20
2022-08-26T07:18:58.193Z,4.93
2022-08-26T07:21:26.172Z,5.20
2022-08-26T07:23:58.690Z,5.12
2022-08-26T07:26:30.226Z,5.60
2022-08-26T07:28:58.581Z,4.97
2022-08-26T07:31:28.478Z,4.78
2022-08-26T07:33:56.928Z,5.28
2022-08-26T07:36:24.805Z,4.70
2022-08-26T07:38:53.039Z,5.35
2022-08-26T07:41:24.469Z,4.80
2022-08-26T07:43:52.975Z,4.87
2022-08-26T07:46:27.218Z,4.95
2022-08-26T07:48:57.618Z,4.65
2022-08-26T07:51:25.078Z,4.12
2022-08-26T07:53:53.078Z,5.30
2022-08-26T07:56:22.174Z,5.10
2022-08-26T08:01:24.258Z,4.55
2022-08-26T08:03:54.201Z,4.82
2022-08-26T08:06:27.046Z,4.35
2022-08-26T08:08:54.871Z,5.03
2022-08-26T08:11:22.535Z,4.97
2022-08-26T08:13:52.365Z,4.90
2022-08-26T08:16:25.079Z,4.65
2022-08-26T08:18:53.728Z,4.45
2022-08-26T08:21:24.131Z,4.70
2022-08-26T08:23:52.870Z,6.22
2022-08-26T08:26:20.620Z,6.15
2022-08-26T08:28:48.158Z,4.15
2022-08-26T08:31:52.513Z,4.63
2022-08-26T08:34:11.038Z,4.62
2022-08-26T08:36:37.901Z,5.40
2022-08-26T08:39:05.447Z,5.03
2022-08-26T08:42:04.504Z,4.63
2022-08-26T08:44:32.248Z,4.80
2022-08-26T08:47:06.301Z,5.55
2022-08-26T08:49:34.623Z,5.18
2022-08-26T08:52:23.224Z,5.00
2022-08-26T08:54:55.573Z,6.07
2022-08-26T08:57:46.929Z,4.82
2022-08-26T09:00:18.981Z,4.85
2022-08-26T09:02:58.393Z,4.80
2022-08-26T09:05:34.040Z,4.85
2022-08-26T09:08:20.132Z,4.85
2022-08-26T09:10:54.845Z,5.12
2022-08-26T09:13:26.034Z,4.80
2022-08-26T09:16:10.673Z,5.12
2022-08-26T09:18:52.455Z,5.40
2022-08-26T09:21:23.545Z,5.07
2022-08-26T09:23:56.634Z,4.43
2022-08-26T09:26:47.385Z,4.60
2022-08-26T09:29:27.087Z,4.78
2022-08-26T09:32:26.628Z,5.15
2022-08-26T09:34:54.114Z,5.65
2022-08-26T09:40:17.942Z,5.05
2022-08-26T09:42:45.414Z,5.93
2022-08-26T09:45:15.704Z,5.37
2022-08-26T09:47:47.930Z,5.68
2022-08-26T09:50:32.351Z,4.90
2022-08-26T09:53:28.469Z,5.00
2022-08-26T09:56:32.849Z,4.53
2022-08-26T09:59:01.214Z,5.65
2022-08-26T10:04:14.270Z,5.55
2022-08-26T10:06:54.655Z,5.72
2022-08-26T10:09:25.861Z,4.70
2022-08-26T10:12:00.796Z,5.50
2022-08-26T10:14:50.502Z,5.28
2022-08-26T10:17:25.366Z,4.85
2022-08-26T10:19:57.915Z,4.47
2022-08-26T10:22:41.394Z,5.50
2022-08-26T10:25:16.188Z,5.35
2022-08-26T10:28:19.773Z,5.07
2022-08-26T10:30:53.132Z,4.78
2022-08-26T10:33:19.964Z,4.95
2022-08-26T10:36:02.001Z,6.05
2022-08-26T10:38:40.616Z,5.55
2022-08-26T10:41:16.841Z,6.68
2022-08-26T10:43:55.637Z,6.70
2022-08-26T10:46:27.390Z,6.53
2022-08-26T10:49:06.732Z,5.70
2022-08-26T10:51:42.389Z,5.28
2022-08-26T10:54:17.321Z,5.65
2022-08-26T10:57:02.839Z,6.07
2022-08-26T10:59:57.448Z,5.20
2022-08-26T11:02:37.125Z,5.37
2022-08-26T11:05:19.839Z,5.20
2022-08-26T11:07:52.832Z,5.20
2022-08-26T11:10:21.862Z,6.40
2022-08-26T11:12:58.032Z,5.60
2022-08-26T11:15:25.121Z,5.25
2022-08-26T11:17:52.113Z,6.05
2022-08-26T11:20:41.892Z,5.50
2022-08-26T11:23:21.253Z,5.75
2022-08-26T11:25:57.481Z,6.03
2022-08-26T11:28:37.711Z,5.43
2022-08-26T11:31:10.315Z,5.55
2022-08-26T11:33:59.410Z,5.35
2022-08-26T11:36:41.321Z,4.78
2022-08-26T11:39:30.041Z,4.75
2022-08-26T11:44:40.525Z,6.53
2022-08-26T11:47:11.569Z,4.85
2022-08-26T11:49:39.246Z,5.47
2022-08-26T11:52:21.095Z,5.30
2022-08-26T11:55:11.201Z,5.80
2022-08-26T11:57:46.542Z,5.15
2022-08-26T12:00:26.617Z,5.43
2022-08-26T12:02:55.853Z,5.90
2022-08-26T12:05:38.538Z,5.03
2022-08-26T12:08:11.366Z,6.05
2022-08-26T12:10:38.537Z,5.78
2022-08-26T12:13:07.314Z,6.65
2022-08-26T12:15:35.866Z,5.60
2022-08-26T12:18:28.627Z,5.47
2022-08-26T12:21:00.701Z,4.93
2022-08-26T12:23:36.543Z,5.45
2022-08-26T12:26:11.263Z,5.70
2022-08-26T12:28:54.287Z,5.47
2022-08-26T12:31:46.805Z,6.22
2022-08-26T12:34:18.119Z,6.35
2022-08-26T12:36:48.954Z,6.68
2022-08-26T12:39:26.208Z,5.40
2022-08-26T12:41:56.661Z,5.53
2022-08-26T12:44:53.785Z,5.43
2022-08-26T12:47:36.933Z,5.45
2022-08-26T12:50:32.921Z,5.35
2022-08-26T12:53:03.677Z,5.72
2022-08-26T12:55:33.722Z,5.43
2022-08-26T12:58:13.019Z,5.70
2022-08-26T13:00:43.040Z,7.80
2022-08-26T13:03:33.925Z,5.60
2022-08-26T13:06:31.440Z,5.95
2022-08-26T13:09:05.316Z,6.77
2022-08-26T13:11:41.474Z,6.00
2022-08-26T13:14:23.876Z,6.25
2022-08-26T13:16:52.998Z,5.68
2022-08-26T13:21:59.610Z,6.37
2022-08-26T13:24:33.088Z,5.90
2022-08-26T13:27:00.345Z,6.25
2022-08-26T13:29:27.551Z,6.00
2022-08-26T13:31:55.893Z,6.28
2022-08-26T13:34:24.825Z,5.12
2022-08-26T13:36:54.982Z,5.53
2022-08-26T13:39:23.110Z,5.95
2022-08-26T13:41:50.285Z,5.87
2022-08-26T13:44:19.623Z,5.93
2022-08-26T13:46:46.627Z,5.12
2022-08-26T13:49:13.775Z,6.43
2022-08-26T13:51:41.854Z,6.00
2022-08-26T13:54:08.928Z,5.20
2022-08-26T13:56:36.416Z,5.60
2022-08-26T13:59:03.536Z,5.60
2022-08-26T14:01:32.788Z,5.68
2022-08-26T14:03:59.990Z,6.35
2022-08-26T14:06:27.269Z,5.85
2022-08-26T14:08:54.105Z,5.95
2022-08-26T14:11:21.583Z,5.70
2022-08-26T14:13:48.536Z,6.32
2022-08-26T14:16:37.693Z,6.65
2022-08-26T14:19:24.566Z,5.28
2022-08-26T14:21:51.572Z,6.28
2022-08-26T14:24:18.355Z,6.00
2022-08-26T14:26:45.197Z,5.05
2022-08-26T14:29:14.705Z,5.85
2022-08-26T14:31:43.946Z,6.40
2022-08-26T14:34:13.991Z,5.65
2022-08-26T14:36:41.122Z,6.18
2022-08-26T14:39:11.083Z,6.22
2022-08-26T14:41:53.813Z,7.22
2022-08-26T14:44:25.037Z,7.30
2022-08-26T14:46:53.328Z,5.75
2022-08-26T14:49:22.206Z,6.05
2022-08-26T14:51:49.601Z,5.95
2022-08-26T14:54:18.725Z,6.00
2022-08-26T14:56:52.662Z,6.47
2022-08-26T14:59:26.330Z,6.03
2022-08-26T15:01:54.954Z,6.28
2022-08-26T15:06:48.877Z,5.65
2022-08-26T15:09:16.487Z,6.35
2022-08-26T15:11:43.483Z,7.65
2022-08-26T15:14:14.819Z,6.47
2022-08-26T15:16:48.606Z,5.87
2022-08-26T15:19:16.252Z,6.10
2022-08-26T15:21:45.500Z,6.37
2022-08-26T15:24:12.968Z,6.97
2022-08-26T15:26:40.093Z,6.05
2022-08-26T15:29:07.309Z,6.57
2022-08-26T15:31:34.521Z,6.60
2022-08-26T15:34:06.601Z,6.28
2022-08-26T15:36:33.933Z,6.47
2022-08-26T15:39:01.683Z,5.43
2022-08-26T15:41:29.746Z,6.35
2022-08-26T15:43:57.856Z,6.73
2022-08-26T15:46:24.881Z,6.63
2022-08-26T15:48:52.183Z,5.62
2022-08-26T15:51:31.846Z,5.75
2022-08-26T15:53:59.129Z,5.57
2022-08-26T15:56:27.941Z,5.37
2022-08-26T15:58:56.200Z,5.65
2022-08-26T16:01:27.599Z,5.87
2022-08-26T16:03:55.791Z,5.60
2022-08-26T16:06:28.957Z,6.45
2022-08-26T16:08:56.408Z,5.45
2022-08-26T16:11:24.487Z,4.93
2022-08-26T16:13:51.833Z,5.62
2022-08-26T16:16:19.674Z,6.00
2022-08-26T16:18:48.568Z,5.87
2022-08-26T16:21:18.413Z,4.82
2022-08-26T16:23:46.322Z,5.50
2022-08-26T16:26:16.499Z,6.20
2022-08-26T16:28:44.134Z,6.32
2022-08-26T16:31:11.589Z,5.90
2022-08-26T16:33:39.092Z,6.28
2022-08-26T16:36:07.534Z,6.22
2022-08-26T16:38:35.705Z,5.47
2022-08-26T16:41:02.774Z,4.87
2022-08-26T16:43:30.043Z,5.60
2022-08-26T16:45:57.299Z,5.28
2022-08-26T16:48:24.600Z,5.97
2022-08-26T16:50:52.152Z,5.65
2022-08-26T16:53:19.270Z,5.40
2022-08-26T16:55:47.832Z,6.18
2022-08-26T16:58:15.065Z,6.07
2022-08-26T17:00:42.650Z,5.18
2022-08-26T17:03:10.126Z,5.47
2022-08-26T17:05:39.927Z,4.55
2022-08-26T17:08:07.611Z,5.45
2022-08-26T17:10:35.848Z,5.30
2022-08-26T17:13:03.099Z,5.50
2022-08-26T17:15:29.962Z,5.75
2022-08-26T17:17:57.215Z,5.32
2022-08-26T17:20:25.257Z,5.62
2022-08-26T17:22:55.353Z,6.07
2022-08-26T17:25:26.017Z,5.47
2022-08-26T17:27:53.210Z,6.68
2022-08-26T17:30:21.210Z,5.40
2022-08-26T17:32:48.622Z,5.78
2022-08-26T17:35:17.067Z,5.47
2022-08-26T17:37:44.096Z,5.53
2022-08-26T17:40:15.634Z,5.78
2022-08-26T17:42:43.461Z,5.53
2022-08-26T17:45:12.015Z,5.75
2022-08-26T17:47:39.591Z,6.07
2022-08-26T17:50:09.483Z,6.72
2022-08-26T17:52:38.133Z,5.75
2022-08-26T17:55:06.820Z,5.53
2022-08-26T17:57:37.368Z,5.62
2022-08-26T18:00:14.796Z,5.55
2022-08-26T18:02:41.750Z,6.00
2022-08-26T18:05:10.021Z,5.97
2022-08-26T18:07:43.725Z,5.18
2022-08-26T18:10:13.406Z,5.40
2022-08-26T18:12:41.783Z,6.50
2022-08-26T18:15:10.640Z,7.30
2022-08-26T18:17:39.475Z,7.05
2022-08-26T18:20:09.068Z,6.28
2022-08-26T18:22:36.026Z,6.72
2022-08-26T18:25:05.018Z,6.70
2022-08-26T18:27:32.406Z,7.05
2022-08-26T18:29:59.684Z,7.15
2022-08-26T18:32:26.532Z,6.80
2022-08-26T18:34:53.484Z,6.65
2022-08-26T18:37:20.509Z,6.65
2022-08-26T18:39:47.785Z,6.15
2022-08-26T18:42:14.794Z,6.10
2022-08-26T18:44:41.706Z,6.47
2022-08-26T18:47:08.681Z,6.93
2022-08-26T18:49:35.480Z,6.65
2022-08-26T18:52:02.609Z,6.25
2022-08-26T18:54:30.137Z,6.97
2022-08-26T18:56:56.922Z,6.65
2022-08-26T18:59:29.504Z,6.90
2022-08-26T19:01:57.790Z,6.12
2022-08-26T19:04:25.048Z,7.00
2022-08-26T19:06:52.179Z,6.07
2022-08-26T19:09:20.927Z,6.30
2022-08-26T19:11:49.595Z,6.20
2022-08-26T19:14:17.554Z,6.32
2022-08-26T19:16:47.454Z,7.12
2022-08-26T19:19:15.546Z,6.80
2022-08-26T19:21:43.147Z,7.45
2022-08-26T19:24:15.597Z,7.28
2022-08-26T19:26:47.468Z,6.97
2022-08-26T19:29:15.690Z,9.07
2022-08-26T19:31:44.046Z,7.22
2022-08-26T19:34:12.290Z,7.62
2022-08-26T19:36:40.192Z,7.07
2022-08-26T19:39:12.311Z,7.40
2022-08-26T19:41:40.047Z,7.87
2022-08-26T19:44:10.226Z,7.72
2022-08-26T19:49:06.670Z,7.95
2022-08-26T19:51:35.199Z,6.22
2022-08-26T19:54:02.591Z,6.70
2022-08-26T19:56:29.936Z,6.60
2022-08-26T19:58:57.512Z,7.70
2022-08-26T20:01:24.769Z,7.45
2022-08-26T20:03:51.778Z,6.93
2022-08-26T20:06:20.239Z,7.87
2022-08-26T20:08:48.152Z,7.40
2022-08-26T20:11:19.244Z,7.57
2022-08-26T20:13:48.095Z,6.55
2022-08-26T20:16:16.445Z,7.10
2022-08-26T20:19:03.579Z,7.97
2022-08-26T20:21:35.908Z,7.18
2022-08-26T20:24:10.421Z,6.20
2022-08-26T20:26:39.060Z,6.60
2022-08-26T20:29:07.600Z,7.90
2022-08-26T20:31:35.542Z,6.75
2022-08-26T20:34:02.934Z,7.07
2022-08-26T20:36:30.525Z,7.90
2022-08-26T20:38:58.317Z,7.70
2022-08-26T20:41:26.727Z,8.02
2022-08-26T20:43:54.225Z,7.10
2022-08-26T20:46:24.699Z,8.35
2022-08-26T20:48:53.429Z,7.97
2022-08-26T20:51:21.719Z,7.03
2022-08-26T20:53:48.601Z,7.07
2022-08-26T20:56:17.294Z,7.03
2022-08-26T20:58:44.067Z,6.97
2022-08-26T21:01:18.733Z,6.47
2022-08-26T21:03:46.087Z,7.60
2022-08-26T21:06:13.105Z,7.12
2022-08-26T21:08:42.649Z,6.97
2022-08-26T21:11:10.686Z,6.82
2022-08-26T21:13:54.446Z,7.07
2022-08-26T21:16:26.106Z,8.10
2022-08-26T21:18:53.565Z,7.03
2022-08-26T21:21:25.012Z,7.93
2022-08-26T21:23:52.139Z,7.35
2022-08-26T21:26:19.171Z,7.40
2022-08-26T21:28:46.517Z,7.15
2022-08-26T21:31:16.587Z,7.00
2022-08-26T21:33:43.988Z,6.68
2022-08-26T21:36:12.114Z,6.95
2022-08-26T21:38:40.098Z,6.47
2022-08-26T21:41:08.467Z,7.30
2022-08-26T21:43:36.774Z,7.18
2022-08-26T21:46:14.635Z,6.97
2022-08-26T21:48:50.687Z,7.22
2022-08-26T21:51:20.538Z,6.82
2022-08-26T21:56:17.167Z,7.32
2022-08-26T22:01:17.989Z,7.25
2022-08-26T22:03:47.230Z,7.07
2022-08-26T22:06:17.554Z,7.47
2022-08-26T22:08:44.394Z,7.60
2022-08-26T22:11:11.692Z,7.90
2022-08-26T22:13:40.569Z,6.72
2022-08-26T22:16:07.807Z,6.57
2022-08-26T22:18:35.224Z,7.20
2022-08-26T22:21:05.923Z,7.50
2022-08-26T22:23:33.379Z,7.18
2022-08-26T22:26:00.362Z,8.35
2022-08-26T22:28:28.326Z,7.07
2022-08-26T22:30:55.787Z,7.90
2022-08-26T22:33:23.135Z,8.27
2022-08-26T22:35:52.061Z,7.05
2022-08-26T22:38:20.063Z,6.90
2022-08-26T22:40:56.819Z,8.25
2022-08-26T22:43:25.637Z,7.07
2022-08-26T22:45:53.193Z,8.18
2022-08-26T22:48:24.171Z,8.13
2022-08-26T22:50:55.239Z,7.10
2022-08-26T22:53:24.012Z,7.90
2022-08-26T22:55:50.773Z,7.60
2022-08-26T22:58:18.909Z,8.20
2022-08-26T23:00:46.905Z,7.20
2022-08-26T23:03:14.564Z,7.57
2022-08-26T23:05:42.235Z,7.15
2022-08-26T23:08:10.135Z,7.07
2022-08-26T23:10:37.399Z,6.85
2022-08-26T23:13:07.737Z,7.30
2022-08-26T23:15:35.541Z,7.93
2022-08-26T23:18:02.548Z,7.70
2022-08-26T23:20:29.448Z,7.55
2022-08-26T23:22:56.624Z,7.57
2022-08-26T23:25:24.428Z,7.20
2022-08-26T23:27:52.087Z,6.72
2022-08-26T23:30:23.664Z,8.77
2022-08-26T23:32:50.786Z,8.63
2022-08-26T23:35:21.774Z,7.80
2022-08-26T23:37:53.143Z,7.57
2022-08-26T23:40:26.749Z,7.75
2022-08-26T23:42:55.834Z,7.00
2022-08-26T23:45:24.825Z,7.15
2022-08-26T23:47:52.108Z,8.85
2022-08-26T23:50:21.158Z,6.78
2022-08-26T23:53:06.492Z,7.85
2022-08-26T23:55:38.724Z,7.43
2022-08-26T23:58:06.157Z,7.60
